sensor_id;sensor_type;location;lat;lon;timestamp;P1;durP1;ratioP1;P2;durP2;ratioP2
6392;SDS011;3229;42.674;23.282;2024-01-16T00:02:23;11.53;;;7.90;;
6392;SDS011;3229;42.674;23.282;2024-01-16T00:04:52;11.43;;;7.57;;
6392;SDS011;3229;42.674;23.282;2024-01-16T00:07:18;14.37;;;8.20;;
6392;SDS011;3229;42.674;23.282;2024-01-16T00:09:45;12.23;;;8.60;;
6392;SDS011;3229;42.674;23.282;2024-01-16T00:12:12;12.57;;;8.50;;
6392;SDS011;3229;42.674;23.282;2024-01-16T00:14:39;10.87;;;7.67;;
6392;SDS011;3229;42.674;23.282;2024-01-16T00:17:06;10.83;;;7.73;;
6392;SDS011;3229;42.674;23.282;2024-01-16T00:19:32;11.83;;;8.20;;
6392;SDS011;3229;42.674;23.282;2024-01-16T00:22:00;13.20;;;8.57;;
6392;SDS011;3229;42.674;23.282;2024-01-16T00:24:29;11.00;;;8.23;;
6392;SDS011;3229;42.674;23.282;2024-01-16T00:26:55;11.93;;;8.00;;
6392;SDS011;3229;42.674;23.282;2024-01-16T00:29:22;12.50;;;8.80;;
6392;SDS011;3229;42.674;23.282;2024-01-16T00:31:50;10.80;;;7.97;;
6392;SDS011;3229;42.674;23.282;2024-01-16T00:34:17;11.70;;;8.57;;
6392;SDS011;3229;42.674;23.282;2024-01-16T00:36:43;10.40;;;8.20;;
6392;SDS011;3229;42.674;23.282;2024-01-16T00:39:11;11.93;;;7.67;;
6392;SDS011;3229;42.674;23.282;2024-01-16T00:41:38;11.27;;;8.13;;
6392;SDS011;3229;42.674;23.282;2024-01-16T00:44:05;10.97;;;7.93;;
6392;SDS011;3229;42.674;23.282;2024-01-16T00:46:33;10.03;;;7.50;;
6392;SDS011;3229;42.674;23.282;2024-01-16T00:48:59;13.37;;;8.63;;
6392;SDS011;3229;42.674;23.282;2024-01-16T00:51:26;13.53;;;8.27;;
6392;SDS011;3229;42.674;23.282;2024-01-16T00:53:53;15.13;;;7.90;;
6392;SDS011;3229;42.674;23.282;2024-01-16T00:56:21;13.17;;;8.23;;
6392;SDS011;3229;42.674;23.282;2024-01-16T00:58:48;11.57;;;7.60;;
6392;SDS011;3229;42.674;23.282;2024-01-16T01:01:14;9.90;;;7.40;;
6392;SDS011;3229;42.674;23.282;2024-01-16T01:03:41;14.13;;;8.33;;
6392;SDS011;3229;42.674;23.282;2024-01-16T01:06:08;12.30;;;7.87;;
6392;SDS011;3229;42.674;23.282;2024-01-16T01:08:35;11.63;;;7.80;;
6392;SDS011;3229;42.674;23.282;2024-01-16T01:11:02;11.07;;;7.93;;
6392;SDS011;3229;42.674;23.282;2024-01-16T01:13:30;11.77;;;8.03;;
6392;SDS011;3229;42.674;23.282;2024-01-16T01:15:57;11.17;;;7.17;;
6392;SDS011;3229;42.674;23.282;2024-01-16T01:18:24;7.77;;;6.50;;
6392;SDS011;3229;42.674;23.282;2024-01-16T01:20:51;12.60;;;7.70;;
6392;SDS011;3229;42.674;23.282;2024-01-16T01:23:17;9.90;;;7.00;;
6392;SDS011;3229;42.674;23.282;2024-01-16T01:25:44;10.67;;;7.63;;
6392;SDS011;3229;42.674;23.282;2024-01-16T01:28:11;9.20;;;7.67;;
6392;SDS011;3229;42.674;23.282;2024-01-16T01:30:39;10.30;;;7.10;;
6392;SDS011;3229;42.674;23.282;2024-01-16T01:33:06;9.57;;;7.60;;
6392;SDS011;3229;42.674;23.282;2024-01-16T01:35:32;8.90;;;6.73;;
6392;SDS011;3229;42.674;23.282;2024-01-16T01:37:59;11.40;;;7.73;;
6392;SDS011;3229;42.674;23.282;2024-01-16T01:40:26;10.47;;;6.80;;
6392;SDS011;3229;42.674;23.282;2024-01-16T01:42:53;8.10;;;6.53;;
6392;SDS011;3229;42.674;23.282;2024-01-16T01:45:19;8.20;;;6.67;;
6392;SDS011;3229;42.674;23.282;2024-01-16T01:47:48;9.13;;;6.97;;
6392;SDS011;3229;42.674;23.282;2024-01-16T01:50:15;9.30;;;7.00;;
6392;SDS011;3229;42.674;23.282;2024-01-16T01:52:42;9.80;;;6.97;;
6392;SDS011;3229;42.674;23.282;2024-01-16T01:55:10;8.93;;;6.27;;
6392;SDS011;3229;42.674;23.282;2024-01-16T01:57:39;9.33;;;6.60;;
6392;SDS011;3229;42.674;23.282;2024-01-16T02:00:08;12.70;;;7.03;;
6392;SDS011;3229;42.674;23.282;2024-01-16T02:02:35;9.40;;;6.97;;
6392;SDS011;3229;42.674;23.282;2024-01-16T02:05:03;8.60;;;6.50;;
6392;SDS011;3229;42.674;23.282;2024-01-16T02:07:30;14.53;;;7.23;;
6392;SDS011;3229;42.674;23.282;2024-01-16T02:09:59;9.07;;;6.80;;
6392;SDS011;3229;42.674;23.282;2024-01-16T02:12:26;9.00;;;5.73;;
6392;SDS011;3229;42.674;23.282;2024-01-16T02:14:53;7.13;;;5.83;;
6392;SDS011;3229;42.674;23.282;2024-01-16T02:17:20;8.37;;;6.60;;
6392;SDS011;3229;42.674;23.282;2024-01-16T02:19:47;8.10;;;6.10;;
6392;SDS011;3229;42.674;23.282;2024-01-16T02:22:16;8.00;;;6.33;;
6392;SDS011;3229;42.674;23.282;2024-01-16T02:24:48;9.13;;;6.70;;
6392;SDS011;3229;42.674;23.282;2024-01-16T02:27:14;8.17;;;5.83;;
6392;SDS011;3229;42.674;23.282;2024-01-16T02:29:42;9.43;;;5.80;;
6392;SDS011;3229;42.674;23.282;2024-01-16T02:32:09;7.83;;;5.70;;
6392;SDS011;3229;42.674;23.282;2024-01-16T02:34:37;9.17;;;6.70;;
6392;SDS011;3229;42.674;23.282;2024-01-16T02:37:04;8.07;;;5.50;;
6392;SDS011;3229;42.674;23.282;2024-01-16T02:39:31;7.17;;;5.23;;
6392;SDS011;3229;42.674;23.282;2024-01-16T02:41:59;7.97;;;5.27;;
6392;SDS011;3229;42.674;23.282;2024-01-16T02:44:26;6.97;;;5.63;;
6392;SDS011;3229;42.674;23.282;2024-01-16T02:46:52;6.17;;;5.30;;
6392;SDS011;3229;42.674;23.282;2024-01-16T02:49:19;7.73;;;5.60;;
6392;SDS011;3229;42.674;23.282;2024-01-16T02:51:46;5.37;;;4.87;;
6392;SDS011;3229;42.674;23.282;2024-01-16T02:54:14;7.33;;;5.97;;
6392;SDS011;3229;42.674;23.282;2024-01-16T02:56:40;7.17;;;5.50;;
6392;SDS011;3229;42.674;23.282;2024-01-16T02:59:09;6.10;;;4.87;;
6392;SDS011;3229;42.674;23.282;2024-01-16T03:01:35;6.47;;;5.40;;
6392;SDS011;3229;42.674;23.282;2024-01-16T03:04:02;7.40;;;5.60;;
6392;SDS011;3229;42.674;23.282;2024-01-16T03:06:29;8.47;;;5.90;;
6392;SDS011;3229;42.674;23.282;2024-01-16T03:08:56;7.27;;;5.57;;
6392;SDS011;3229;42.674;23.282;2024-01-16T03:11:22;7.23;;;5.83;;
6392;SDS011;3229;42.674;23.282;2024-01-16T03:13:49;8.33;;;5.53;;
6392;SDS011;3229;42.674;23.282;2024-01-16T03:16:19;6.50;;;5.40;;
6392;SDS011;3229;42.674;23.282;2024-01-16T03:18:45;6.67;;;5.20;;
6392;SDS011;3229;42.674;23.282;2024-01-16T03:21:13;5.50;;;4.73;;
6392;SDS011;3229;42.674;23.282;2024-01-16T03:23:40;5.63;;;4.70;;
6392;SDS011;3229;42.674;23.282;2024-01-16T03:26:11;5.37;;;4.60;;
6392;SDS011;3229;42.674;23.282;2024-01-16T03:28:38;5.10;;;4.17;;
6392;SDS011;3229;42.674;23.282;2024-01-16T03:31:05;4.00;;;3.60;;
6392;SDS011;3229;42.674;23.282;2024-01-16T03:33:34;5.53;;;4.20;;
6392;SDS011;3229;42.674;23.282;2024-01-16T03:36:00;5.10;;;4.03;;
6392;SDS011;3229;42.674;23.282;2024-01-16T03:38:28;4.80;;;3.97;;
6392;SDS011;3229;42.674;23.282;2024-01-16T03:40:54;4.80;;;3.90;;
6392;SDS011;3229;42.674;23.282;2024-01-16T03:43:21;7.80;;;3.90;;
6392;SDS011;3229;42.674;23.282;2024-01-16T03:45:48;4.03;;;3.67;;
6392;SDS011;3229;42.674;23.282;2024-01-16T03:48:15;4.17;;;3.60;;
6392;SDS011;3229;42.674;23.282;2024-01-16T03:50:43;4.07;;;3.40;;
6392;SDS011;3229;42.674;23.282;2024-01-16T03:53:10;3.57;;;3.27;;
6392;SDS011;3229;42.674;23.282;2024-01-16T03:55:37;3.77;;;3.30;;
6392;SDS011;3229;42.674;23.282;2024-01-16T03:58:04;3.67;;;3.27;;
6392;SDS011;3229;42.674;23.282;2024-01-16T04:00:31;4.03;;;3.67;;
6392;SDS011;3229;42.674;23.282;2024-01-16T04:02:58;3.40;;;3.10;;
6392;SDS011;3229;42.674;23.282;2024-01-16T04:05:25;3.40;;;3.10;;
6392;SDS011;3229;42.674;23.282;2024-01-16T04:07:53;2.93;;;2.67;;
6392;SDS011;3229;42.674;23.282;2024-01-16T04:10:20;3.75;;;2.85;;
6392;SDS011;3229;42.674;23.282;2024-01-16T04:12:47;3.10;;;2.80;;
6392;SDS011;3229;42.674;23.282;2024-01-16T04:15:13;2.87;;;2.67;;
6392;SDS011;3229;42.674;23.282;2024-01-16T04:17:40;3.00;;;2.80;;
6392;SDS011;3229;42.674;23.282;2024-01-16T04:20:07;3.27;;;2.70;;
6392;SDS011;3229;42.674;23.282;2024-01-16T04:22:35;2.90;;;2.70;;
6392;SDS011;3229;42.674;23.282;2024-01-16T04:25:03;3.00;;;2.80;;
6392;SDS011;3229;42.674;23.282;2024-01-16T04:27:30;2.80;;;2.53;;
6392;SDS011;3229;42.674;23.282;2024-01-16T04:29:57;2.60;;;2.40;;
6392;SDS011;3229;42.674;23.282;2024-01-16T04:32:24;2.80;;;2.60;;
6392;SDS011;3229;42.674;23.282;2024-01-16T04:34:51;2.70;;;2.50;;
6392;SDS011;3229;42.674;23.282;2024-01-16T04:37:18;2.87;;;2.50;;
6392;SDS011;3229;42.674;23.282;2024-01-16T04:39:44;2.20;;;2.10;;
6392;SDS011;3229;42.674;23.282;2024-01-16T04:42:13;2.40;;;2.20;;
6392;SDS011;3229;42.674;23.282;2024-01-16T04:44:39;2.57;;;2.37;;
6392;SDS011;3229;42.674;23.282;2024-01-16T04:47:06;2.30;;;2.20;;
6392;SDS011;3229;42.674;23.282;2024-01-16T04:49:33;2.60;;;2.40;;
6392;SDS011;3229;42.674;23.282;2024-01-16T04:52:00;2.40;;;2.20;;
6392;SDS011;3229;42.674;23.282;2024-01-16T04:54:26;2.23;;;2.13;;
6392;SDS011;3229;42.674;23.282;2024-01-16T04:56:53;2.30;;;2.10;;
6392;SDS011;3229;42.674;23.282;2024-01-16T04:59:22;2.23;;;2.03;;
6392;SDS011;3229;42.674;23.282;2024-01-16T05:01:48;2.47;;;2.33;;
6392;SDS011;3229;42.674;23.282;2024-01-16T05:04:15;2.30;;;2.17;;
6392;SDS011;3229;42.674;23.282;2024-01-16T05:06:42;2.40;;;2.20;;
6392;SDS011;3229;42.674;23.282;2024-01-16T05:09:09;2.13;;;2.00;;
6392;SDS011;3229;42.674;23.282;2024-01-16T05:11:35;2.07;;;1.97;;
6392;SDS011;3229;42.674;23.282;2024-01-16T05:14:02;2.60;;;2.40;;
6392;SDS011;3229;42.674;23.282;2024-01-16T05:16:30;2.23;;;2.10;;
6392;SDS011;3229;42.674;23.282;2024-01-16T05:18:57;1.97;;;1.87;;
6392;SDS011;3229;42.674;23.282;2024-01-16T05:21:24;2.10;;;2.00;;
6392;SDS011;3229;42.674;23.282;2024-01-16T05:23:51;2.20;;;2.10;;
6392;SDS011;3229;42.674;23.282;2024-01-16T05:26:17;2.20;;;2.10;;
6392;SDS011;3229;42.674;23.282;2024-01-16T05:28:44;2.10;;;2.00;;
6392;SDS011;3229;42.674;23.282;2024-01-16T05:31:11;2.30;;;2.20;;
6392;SDS011;3229;42.674;23.282;2024-01-16T05:33:39;3.17;;;1.70;;
6392;SDS011;3229;42.674;23.282;2024-01-16T05:36:06;2.00;;;1.90;;
6392;SDS011;3229;42.674;23.282;2024-01-16T05:38:33;1.97;;;1.80;;
6392;SDS011;3229;42.674;23.282;2024-01-16T05:41:00;2.07;;;1.97;;
6392;SDS011;3229;42.674;23.282;2024-01-16T05:43:28;2.20;;;2.00;;
6392;SDS011;3229;42.674;23.282;2024-01-16T05:45:55;2.00;;;1.90;;
6392;SDS011;3229;42.674;23.282;2024-01-16T05:48:22;1.90;;;1.80;;
6392;SDS011;3229;42.674;23.282;2024-01-16T05:50:50;1.90;;;1.80;;
6392;SDS011;3229;42.674;23.282;2024-01-16T05:53:17;2.00;;;1.90;;
6392;SDS011;3229;42.674;23.282;2024-01-16T05:55:44;2.13;;;2.03;;
6392;SDS011;3229;42.674;23.282;2024-01-16T05:58:10;1.87;;;1.77;;
6392;SDS011;3229;42.674;23.282;2024-01-16T06:00:37;1.80;;;1.70;;
6392;SDS011;3229;42.674;23.282;2024-01-16T06:03:04;2.00;;;1.90;;
6392;SDS011;3229;42.674;23.282;2024-01-16T06:05:31;2.10;;;2.00;;
6392;SDS011;3229;42.674;23.282;2024-01-16T06:07:59;2.37;;;2.20;;
6392;SDS011;3229;42.674;23.282;2024-01-16T06:10:26;2.03;;;1.93;;
6392;SDS011;3229;42.674;23.282;2024-01-16T06:12:53;2.30;;;2.10;;
6392;SDS011;3229;42.674;23.282;2024-01-16T06:15:20;2.37;;;2.17;;
6392;SDS011;3229;42.674;23.282;2024-01-16T06:17:46;2.97;;;2.27;;
6392;SDS011;3229;42.674;23.282;2024-01-16T06:20:13;2.23;;;1.97;;
6392;SDS011;3229;42.674;23.282;2024-01-16T06:22:40;2.23;;;2.10;;
6392;SDS011;3229;42.674;23.282;2024-01-16T06:25:08;2.40;;;2.20;;
6392;SDS011;3229;42.674;23.282;2024-01-16T06:27:35;2.37;;;2.17;;
6392;SDS011;3229;42.674;23.282;2024-01-16T06:30:02;2.27;;;2.03;;
6392;SDS011;3229;42.674;23.282;2024-01-16T06:32:30;2.63;;;1.93;;
6392;SDS011;3229;42.674;23.282;2024-01-16T06:34:56;2.40;;;2.30;;
6392;SDS011;3229;42.674;23.282;2024-01-16T06:37:23;2.50;;;2.30;;
6392;SDS011;3229;42.674;23.282;2024-01-16T06:39:50;3.20;;;2.20;;
6392;SDS011;3229;42.674;23.282;2024-01-16T06:42:18;2.00;;;1.90;;
6392;SDS011;3229;42.674;23.282;2024-01-16T06:44:45;2.60;;;2.40;;
6392;SDS011;3229;42.674;23.282;2024-01-16T06:47:12;2.30;;;2.20;;
6392;SDS011;3229;42.674;23.282;2024-01-16T06:49:39;2.40;;;2.20;;
6392;SDS011;3229;42.674;23.282;2024-01-16T06:52:06;2.43;;;2.23;;
6392;SDS011;3229;42.674;23.282;2024-01-16T06:54:34;3.03;;;2.07;;
6392;SDS011;3229;42.674;23.282;2024-01-16T06:57:01;2.00;;;1.90;;
6392;SDS011;3229;42.674;23.282;2024-01-16T06:59:29;2.27;;;2.13;;
6392;SDS011;3229;42.674;23.282;2024-01-16T07:01:56;2.20;;;2.00;;
6392;SDS011;3229;42.674;23.282;2024-01-16T07:04:22;2.00;;;1.90;;
6392;SDS011;3229;42.674;23.282;2024-01-16T07:06:49;2.23;;;2.03;;
6392;SDS011;3229;42.674;23.282;2024-01-16T07:09:16;2.53;;;2.33;;
6392;SDS011;3229;42.674;23.282;2024-01-16T07:11:45;3.73;;;2.70;;
6392;SDS011;3229;42.674;23.282;2024-01-16T07:14:12;2.20;;;2.10;;
6392;SDS011;3229;42.674;23.282;2024-01-16T07:16:40;3.67;;;2.00;;
6392;SDS011;3229;42.674;23.282;2024-01-16T07:19:08;2.33;;;2.20;;
6392;SDS011;3229;42.674;23.282;2024-01-16T07:21:35;2.20;;;2.10;;
6392;SDS011;3229;42.674;23.282;2024-01-16T07:24:02;2.33;;;2.13;;
6392;SDS011;3229;42.674;23.282;2024-01-16T07:26:28;2.00;;;1.90;;
6392;SDS011;3229;42.674;23.282;2024-01-16T07:28:55;2.50;;;2.17;;
6392;SDS011;3229;42.674;23.282;2024-01-16T07:31:22;2.17;;;2.07;;
6392;SDS011;3229;42.674;23.282;2024-01-16T07:33:51;2.47;;;2.10;;
6392;SDS011;3229;42.674;23.282;2024-01-16T07:36:17;2.43;;;2.23;;
6392;SDS011;3229;42.674;23.282;2024-01-16T07:38:44;2.17;;;2.07;;
6392;SDS011;3229;42.674;23.282;2024-01-16T07:41:11;2.87;;;2.23;;
6392;SDS011;3229;42.674;23.282;2024-01-16T07:43:38;2.40;;;2.20;;
6392;SDS011;3229;42.674;23.282;2024-01-16T07:46:04;2.53;;;2.00;;
6392;SDS011;3229;42.674;23.282;2024-01-16T07:48:31;2.37;;;2.17;;
6392;SDS011;3229;42.674;23.282;2024-01-16T07:51:00;2.30;;;2.10;;
6392;SDS011;3229;42.674;23.282;2024-01-16T07:53:27;3.20;;;2.30;;
6392;SDS011;3229;42.674;23.282;2024-01-16T08:13:03;2.13;;;2.00;;
6392;SDS011;3229;42.674;23.282;2024-01-16T08:15:30;2.30;;;2.20;;
6392;SDS011;3229;42.674;23.282;2024-01-16T08:17:57;3.77;;;2.17;;
6392;SDS011;3229;42.674;23.282;2024-01-16T08:20:24;2.30;;;2.10;;
6392;SDS011;3229;42.674;23.282;2024-01-16T08:22:50;2.10;;;2.00;;
6392;SDS011;3229;42.674;23.282;2024-01-16T08:25:18;2.63;;;2.33;;
6392;SDS011;3229;42.674;23.282;2024-01-16T08:27:44;2.70;;;2.47;;
6392;SDS011;3229;42.674;23.282;2024-01-16T08:30:13;2.33;;;2.13;;
6392;SDS011;3229;42.674;23.282;2024-01-16T08:32:40;2.50;;;2.30;;
6392;SDS011;3229;42.674;23.282;2024-01-16T08:35:07;2.37;;;2.17;;
6392;SDS011;3229;42.674;23.282;2024-01-16T08:37:34;2.37;;;2.17;;
6392;SDS011;3229;42.674;23.282;2024-01-16T08:40:01;2.50;;;2.20;;
6392;SDS011;3229;42.674;23.282;2024-01-16T08:42:29;2.43;;;2.23;;
6392;SDS011;3229;42.674;23.282;2024-01-16T08:44:56;3.10;;;2.20;;
6392;SDS011;3229;42.674;23.282;2024-01-16T08:47:24;2.50;;;2.30;;
6392;SDS011;3229;42.674;23.282;2024-01-16T08:49:51;2.40;;;2.20;;
6392;SDS011;3229;42.674;23.282;2024-01-16T08:52:18;2.20;;;2.10;;
6392;SDS011;3229;42.674;23.282;2024-01-16T08:54:45;2.80;;;2.33;;
6392;SDS011;3229;42.674;23.282;2024-01-16T08:57:12;2.67;;;2.07;;
6392;SDS011;3229;42.674;23.282;2024-01-16T08:59:39;2.53;;;2.27;;
6392;SDS011;3229;42.674;23.282;2024-01-16T09:02:06;2.43;;;2.23;;
6392;SDS011;3229;42.674;23.282;2024-01-16T09:04:35;2.10;;;2.00;;
6392;SDS011;3229;42.674;23.282;2024-01-16T09:07:03;2.13;;;2.03;;
6392;SDS011;3229;42.674;23.282;2024-01-16T09:09:30;5.53;;;1.93;;
6392;SDS011;3229;42.674;23.282;2024-01-16T09:11:57;2.40;;;2.20;;
6392;SDS011;3229;42.674;23.282;2024-01-16T09:14:24;2.80;;;2.27;;
6392;SDS011;3229;42.674;23.282;2024-01-16T09:16:51;2.30;;;2.10;;
6392;SDS011;3229;42.674;23.282;2024-01-16T09:19:19;2.27;;;2.07;;
6392;SDS011;3229;42.674;23.282;2024-01-16T09:21:47;2.40;;;2.20;;
6392;SDS011;3229;42.674;23.282;2024-01-16T09:24:14;2.17;;;2.00;;
6392;SDS011;3229;42.674;23.282;2024-01-16T09:26:40;2.10;;;2.00;;
6392;SDS011;3229;42.674;23.282;2024-01-16T09:29:08;2.17;;;1.97;;
6392;SDS011;3229;42.674;23.282;2024-01-16T09:31:36;2.00;;;1.90;;
6392;SDS011;3229;42.674;23.282;2024-01-16T09:34:03;2.10;;;2.00;;
6392;SDS011;3229;42.674;23.282;2024-01-16T09:36:30;2.40;;;2.20;;
6392;SDS011;3229;42.674;23.282;2024-01-16T09:38:58;2.13;;;1.80;;
6392;SDS011;3229;42.674;23.282;2024-01-16T09:41:25;2.47;;;2.00;;
6392;SDS011;3229;42.674;23.282;2024-01-16T09:43:52;1.97;;;1.87;;
6392;SDS011;3229;42.674;23.282;2024-01-16T09:46:19;2.10;;;1.90;;
6392;SDS011;3229;42.674;23.282;2024-01-16T09:48:49;2.47;;;2.17;;
6392;SDS011;3229;42.674;23.282;2024-01-16T09:51:19;2.63;;;2.43;;
6392;SDS011;3229;42.674;23.282;2024-01-16T09:53:46;2.57;;;2.07;;
6392;SDS011;3229;42.674;23.282;2024-01-16T09:56:14;2.63;;;1.90;;
6392;SDS011;3229;42.674;23.282;2024-01-16T09:58:42;2.37;;;2.17;;
6392;SDS011;3229;42.674;23.282;2024-01-16T10:01:10;1.90;;;1.80;;
6392;SDS011;3229;42.674;23.282;2024-01-16T10:03:38;2.30;;;1.87;;
6392;SDS011;3229;42.674;23.282;2024-01-16T10:06:06;2.10;;;1.90;;
6392;SDS011;3229;42.674;23.282;2024-01-16T10:08:33;2.20;;;2.00;;
6392;SDS011;3229;42.674;23.282;2024-01-16T10:11:00;2.17;;;2.00;;
6392;SDS011;3229;42.674;23.282;2024-01-16T10:13:29;2.00;;;1.90;;
6392;SDS011;3229;42.674;23.282;2024-01-16T10:15:57;2.20;;;2.00;;
6392;SDS011;3229;42.674;23.282;2024-01-16T10:18:25;3.63;;;2.00;;
6392;SDS011;3229;42.674;23.282;2024-01-16T10:20:52;2.10;;;1.90;;
6392;SDS011;3229;42.674;23.282;2024-01-16T10:23:24;2.20;;;2.00;;
6392;SDS011;3229;42.674;23.282;2024-01-16T10:26:06;2.43;;;2.23;;
6392;SDS011;3229;42.674;23.282;2024-01-16T10:28:35;4.30;;;2.23;;
6392;SDS011;3229;42.674;23.282;2024-01-16T10:31:03;2.00;;;1.90;;
6392;SDS011;3229;42.674;23.282;2024-01-16T10:33:30;2.50;;;2.30;;
6392;SDS011;3229;42.674;23.282;2024-01-16T10:38:41;2.13;;;2.00;;
6392;SDS011;3229;42.674;23.282;2024-01-16T10:41:09;2.17;;;2.00;;
6392;SDS011;3229;42.674;23.282;2024-01-16T10:43:38;2.20;;;2.00;;
6392;SDS011;3229;42.674;23.282;2024-01-16T10:46:09;2.13;;;1.93;;
6392;SDS011;3229;42.674;23.282;2024-01-16T10:48:38;3.07;;;1.83;;
6392;SDS011;3229;42.674;23.282;2024-01-16T10:51:06;2.07;;;1.90;;
6392;SDS011;3229;42.674;23.282;2024-01-16T10:53:34;2.60;;;1.83;;
6392;SDS011;3229;42.674;23.282;2024-01-16T10:56:01;2.43;;;1.93;;
6392;SDS011;3229;42.674;23.282;2024-01-16T10:58:30;1.97;;;1.87;;
6392;SDS011;3229;42.674;23.282;2024-01-16T11:01:01;2.23;;;2.00;;
6392;SDS011;3229;42.674;23.282;2024-01-16T11:03:31;2.20;;;2.00;;
6392;SDS011;3229;42.674;23.282;2024-01-16T11:06:04;2.20;;;2.00;;
6392;SDS011;3229;42.674;23.282;2024-01-16T11:08:33;2.10;;;1.90;;
6392;SDS011;3229;42.674;23.282;2024-01-16T11:11:02;1.90;;;1.80;;
6392;SDS011;3229;42.674;23.282;2024-01-16T11:13:30;1.90;;;1.80;;
6392;SDS011;3229;42.674;23.282;2024-01-16T11:16:00;2.03;;;1.90;;
6392;SDS011;3229;42.674;23.282;2024-01-16T11:18:28;1.70;;;1.60;;
6392;SDS011;3229;42.674;23.282;2024-01-16T11:20:57;2.07;;;1.90;;
6392;SDS011;3229;42.674;23.282;2024-01-16T11:23:24;2.40;;;1.97;;
6392;SDS011;3229;42.674;23.282;2024-01-16T11:25:51;2.07;;;1.97;;
6392;SDS011;3229;42.674;23.282;2024-01-16T11:28:18;2.30;;;2.10;;
6392;SDS011;3229;42.674;23.282;2024-01-16T11:30:45;2.23;;;2.03;;
6392;SDS011;3229;42.674;23.282;2024-01-16T11:39:18;2.83;;;2.60;;
6392;SDS011;3229;42.674;23.282;2024-01-16T11:41:52;2.20;;;2.00;;
6392;SDS011;3229;42.674;23.282;2024-01-16T11:44:36;2.80;;;2.60;;
6392;SDS011;3229;42.674;23.282;2024-01-16T11:47:04;2.73;;;2.53;;
6392;SDS011;3229;42.674;23.282;2024-01-16T11:49:33;2.77;;;2.53;;
6392;SDS011;3229;42.674;23.282;2024-01-16T11:52:00;3.30;;;3.00;;
6392;SDS011;3229;42.674;23.282;2024-01-16T11:54:27;3.17;;;2.77;;
6392;SDS011;3229;42.674;23.282;2024-01-16T11:57:03;3.47;;;2.73;;
6392;SDS011;3229;42.674;23.282;2024-01-16T11:59:59;3.63;;;2.80;;
6392;SDS011;3229;42.674;23.282;2024-01-16T12:02:37;2.60;;;2.40;;
6392;SDS011;3229;42.674;23.282;2024-01-16T12:05:14;2.87;;;2.67;;
6392;SDS011;3229;42.674;23.282;2024-01-16T12:07:45;2.97;;;2.77;;
6392;SDS011;3229;42.674;23.282;2024-01-16T12:10:14;4.27;;;2.40;;
6392;SDS011;3229;42.674;23.282;2024-01-16T12:12:41;4.40;;;3.00;;
6392;SDS011;3229;42.674;23.282;2024-01-16T12:15:12;2.47;;;2.30;;
6392;SDS011;3229;42.674;23.282;2024-01-16T12:17:50;2.77;;;2.57;;
6392;SDS011;3229;42.674;23.282;2024-01-16T12:20:22;2.70;;;2.50;;
6392;SDS011;3229;42.674;23.282;2024-01-16T12:22:56;3.03;;;2.43;;
6392;SDS011;3229;42.674;23.282;2024-01-16T12:25:24;2.50;;;2.23;;
6392;SDS011;3229;42.674;23.282;2024-01-16T12:27:55;2.60;;;2.40;;
6392;SDS011;3229;42.674;23.282;2024-01-16T12:30:23;3.17;;;2.50;;
6392;SDS011;3229;42.674;23.282;2024-01-16T12:32:51;2.70;;;2.50;;
6392;SDS011;3229;42.674;23.282;2024-01-16T12:35:22;2.00;;;1.90;;
6392;SDS011;3229;42.674;23.282;2024-01-16T12:37:59;2.50;;;2.30;;
6392;SDS011;3229;42.674;23.282;2024-01-16T12:40:26;2.60;;;2.40;;
6392;SDS011;3229;42.674;23.282;2024-01-16T12:42:53;3.27;;;2.47;;
6392;SDS011;3229;42.674;23.282;2024-01-16T12:45:20;2.50;;;2.20;;
6392;SDS011;3229;42.674;23.282;2024-01-16T12:47:50;2.47;;;2.27;;
6392;SDS011;3229;42.674;23.282;2024-01-16T12:50:22;2.60;;;2.10;;
6392;SDS011;3229;42.674;23.282;2024-01-16T12:53:00;2.67;;;2.47;;
6392;SDS011;3229;42.674;23.282;2024-01-16T12:55:27;2.27;;;2.07;;
6392;SDS011;3229;42.674;23.282;2024-01-16T13:00:39;2.87;;;2.10;;
6392;SDS011;3229;42.674;23.282;2024-01-16T13:03:06;2.20;;;2.10;;
6392;SDS011;3229;42.674;23.282;2024-01-16T13:05:35;2.00;;;1.90;;
6392;SDS011;3229;42.674;23.282;2024-01-16T13:08:02;2.00;;;1.90;;
6392;SDS011;3229;42.674;23.282;2024-01-16T13:10:29;2.00;;;1.90;;
6392;SDS011;3229;42.674;23.282;2024-01-16T13:15:42;2.87;;;2.10;;
6392;SDS011;3229;42.674;23.282;2024-01-16T13:18:19;2.37;;;2.20;;
6392;SDS011;3229;42.674;23.282;2024-01-16T13:20:48;2.10;;;2.00;;
6392;SDS011;3229;42.674;23.282;2024-01-16T13:23:15;2.40;;;2.20;;
6392;SDS011;3229;42.674;23.282;2024-01-16T13:25:42;2.50;;;2.30;;
6392;SDS011;3229;42.674;23.282;2024-01-16T13:28:10;2.87;;;2.00;;
6392;SDS011;3229;42.674;23.282;2024-01-16T13:30:37;2.10;;;2.00;;
6392;SDS011;3229;42.674;23.282;2024-01-16T13:33:04;2.00;;;1.90;;
6392;SDS011;3229;42.674;23.282;2024-01-16T13:35:31;2.27;;;2.07;;
6392;SDS011;3229;42.674;23.282;2024-01-16T13:38:00;2.83;;;2.07;;
6392;SDS011;3229;42.674;23.282;2024-01-16T13:40:28;3.00;;;2.20;;
6392;SDS011;3229;42.674;23.282;2024-01-16T13:42:54;2.93;;;2.17;;
6392;SDS011;3229;42.674;23.282;2024-01-16T13:45:21;2.63;;;2.43;;
6392;SDS011;3229;42.674;23.282;2024-01-16T13:47:48;2.77;;;2.37;;
6392;SDS011;3229;42.674;23.282;2024-01-16T13:50:15;2.67;;;2.33;;
6392;SDS011;3229;42.674;23.282;2024-01-16T13:52:42;2.50;;;2.30;;
6392;SDS011;3229;42.674;23.282;2024-01-16T13:55:11;2.90;;;2.60;;
6392;SDS011;3229;42.674;23.282;2024-01-16T13:57:38;2.90;;;2.70;;
6392;SDS011;3229;42.674;23.282;2024-01-16T14:00:05;2.77;;;2.53;;
6392;SDS011;3229;42.674;23.282;2024-01-16T14:02:34;2.70;;;2.50;;
6392;SDS011;3229;42.674;23.282;2024-01-16T14:05:02;2.43;;;2.23;;
6392;SDS011;3229;42.674;23.282;2024-01-16T14:07:30;2.80;;;2.60;;
6392;SDS011;3229;42.674;23.282;2024-01-16T14:09:57;2.90;;;2.70;;
6392;SDS011;3229;42.674;23.282;2024-01-16T14:12:26;3.23;;;2.53;;
6392;SDS011;3229;42.674;23.282;2024-01-16T14:14:52;2.90;;;2.70;;
6392;SDS011;3229;42.674;23.282;2024-01-16T14:17:20;2.57;;;2.37;;
6392;SDS011;3229;42.674;23.282;2024-01-16T14:19:47;2.80;;;2.60;;
6392;SDS011;3229;42.674;23.282;2024-01-16T14:22:14;2.90;;;2.70;;
6392;SDS011;3229;42.674;23.282;2024-01-16T14:24:41;3.13;;;2.70;;
6392;SDS011;3229;42.674;23.282;2024-01-16T14:27:08;4.03;;;2.80;;
6392;SDS011;3229;42.674;23.282;2024-01-16T14:29:38;3.50;;;3.03;;
6392;SDS011;3229;42.674;23.282;2024-01-16T14:32:05;3.07;;;2.70;;
6392;SDS011;3229;42.674;23.282;2024-01-16T14:34:32;3.40;;;2.77;;
6392;SDS011;3229;42.674;23.282;2024-01-16T14:36:59;4.17;;;2.93;;
6392;SDS011;3229;42.674;23.282;2024-01-16T14:39:26;3.77;;;2.77;;
6392;SDS011;3229;42.674;23.282;2024-01-16T14:41:56;2.80;;;2.60;;
6392;SDS011;3229;42.674;23.282;2024-01-16T14:44:23;2.93;;;2.67;;
6392;SDS011;3229;42.674;23.282;2024-01-16T14:46:51;3.80;;;3.13;;
6392;SDS011;3229;42.674;23.282;2024-01-16T14:49:19;5.57;;;2.93;;
6392;SDS011;3229;42.674;23.282;2024-01-16T14:51:46;5.50;;;2.90;;
6392;SDS011;3229;42.674;23.282;2024-01-16T14:54:12;3.30;;;3.00;;
6392;SDS011;3229;42.674;23.282;2024-01-16T14:56:39;3.43;;;3.03;;
6392;SDS011;3229;42.674;23.282;2024-01-16T14:59:06;4.03;;;3.07;;
6392;SDS011;3229;42.674;23.282;2024-01-16T15:01:34;3.50;;;2.87;;
6392;SDS011;3229;42.674;23.282;2024-01-16T15:04:02;3.70;;;3.20;;
6392;SDS011;3229;42.674;23.282;2024-01-16T15:06:31;3.40;;;3.03;;
6392;SDS011;3229;42.674;23.282;2024-01-16T15:08:59;3.70;;;2.80;;
6392;SDS011;3229;42.674;23.282;2024-01-16T15:11:26;2.97;;;2.70;;
6392;SDS011;3229;42.674;23.282;2024-01-16T15:13:52;5.13;;;2.83;;
6392;SDS011;3229;42.674;23.282;2024-01-16T15:16:19;5.33;;;3.30;;
6392;SDS011;3229;42.674;23.282;2024-01-16T15:18:46;3.07;;;2.87;;
6392;SDS011;3229;42.674;23.282;2024-01-16T15:21:14;3.47;;;3.17;;
6392;SDS011;3229;42.674;23.282;2024-01-16T15:23:41;4.70;;;3.33;;
6392;SDS011;3229;42.674;23.282;2024-01-16T15:26:08;3.30;;;3.00;;
6392;SDS011;3229;42.674;23.282;2024-01-16T15:28:35;3.80;;;3.33;;
6392;SDS011;3229;42.674;23.282;2024-01-16T15:31:02;3.50;;;3.00;;
6392;SDS011;3229;42.674;23.282;2024-01-16T15:33:32;4.10;;;3.07;;
6392;SDS011;3229;42.674;23.282;2024-01-16T15:36:00;4.00;;;3.10;;